Aviation Digital Data Service (ADDS)

Output produced by TAFs form (1630 UTC 23 November 2017)
found at http://www.aviationweather.gov/adds/tafs/
 
METAR text: LYBE 231600Z 10005KT CAVOK 11/05 Q1020 NOSIG
Conditions at: LYBE (BELGRADE/SURCIN , CS) observed 1600 UTC 23 November 2017
Temperature: 11.0°C (52°F)
Dewpoint: 5.0°C (41°F) [RH = 66%]
Pressure (altimeter): 30.12 inches Hg (1020.0 mb)
Winds: from the E (100 degrees) at 6 MPH (5 knots; 2.6 m/s)
Visibility: 6 or more miles (10+ km)
Ceiling: ceiling and visibility are OK
Clouds: unknown
Weather: no significant weather observed at this time

Forecast for: LYBE (BELGRADE/SURCIN , CS)
Text: TAF LYBE 231100Z 2312/2412 20005KT CAVOK TX16/2313Z TN04/2405Z
Forecast period: 1200 UTC 23 November 2017 to 1200 UTC 24 November 2017
Forecast type: FROM: standard forecast or significant change
Winds: from the SSW (200 degrees) at 6 MPH (5 knots; 2.6 m/s)
Visibility: 6 or more miles (10+ km)
Clouds: not forecast
Weather: no significant weather forecast for this period
Text: TEMPO 2403/2407 3000 BR
Forecast period: 0300 to 0700 UTC 24 November 2017
Forecast type: TEMPORARY: The following changes expected for less than half the time period
Visibility: 1.86 miles (2.99 km)
Weather: BR  (mist)